Strona główna
METAR-TAF:

METAR-TAF

Lotnisko :

RAAF Base Tindal

Katherine, Australia

Szerokość geograficzna: 14-26S, Długość geograficzna: 132-16E, wysokość: 108 m

Aktualna obserwacja pogody

Raport powstał 11 minut temu, godzina 22:00 UTC
Cisza
Temperatura 24°C
Wilgotność 83%
Ciśnienie 1011 hPa
Widzialność 10 km lub więcej

METAR: YPTN 102200Z AUTO 00000KT 9999 // NCD 24/21 Q1011

czas: 07:41 (22:11 UTC)

Prognoza

Raport powstał 4 godziny i 44 minut temu, godzina 17:27 UTC
Prognoza ważna od 10 godzina 18 UTC do 11 godzina 18 UTC
Wiatr 3 kt z kierunków zmiennych
Widzialność 10 km lub więcej
Brak chmur poniżej 1500 m i brak chmur cumulonimbus
Od 11 godzina 0400 UTC
Wiatr 8 kt od południowo-południowy wschód
Widzialność 10 km lub więcej
Brak chmur poniżej 1500 m i brak chmur cumulonimbus
Od 11 godzina 0900 UTC
Wiatr 3 kt z kierunków zmiennych
Widzialność 10 km lub więcej
Brak chmur poniżej 1500 m i brak chmur cumulonimbus

TAF: YPTN 101727Z 1018/1118 VRB03KT CAVOK FM110400 15008KT CAVOK FM110900 VRB03KT CAVOK

Obserwacja i prognoza pogody dla ponad 4000 lotnisk (raport METAR i TAF).

Dostępne stacje oznaczono żółtymi i czerwonymi punktami na mapie.

Najedź kursorem aby zobaczyć nazwę stacji.

Kliknij aby zobaczyć obserwacje i prognozy pogody.

Aby zmienić mapę: kliknij na zielony przycisk z czarnym krzyżykiem, aby powiększyć; na zielony przycisk z myślnikiem, aby pomniejszyć; na zielone strzałki, aby przejść do map sąsiednich.


METAR-TAF: